Airfield :
LOGIN :

Register | Disclaimer

   EN    FR    IT 

 










Legend :    VFR   Marginal VFR   IFR   Intensive IFR   Very Intensive IFR
Visi :
Ceiling :
>= 8 km
>= 3000ft
5 to 8 km
1000 to 3000 ft
1500m to 5 km
500 to 1000 ft
800 to 1500m
200 to 500 ft
< 800m
< 200 ft
Symbols :   Thunderstorms  Fog  Heavy snow  Heavy precipitations  Wind > 20 kt
SIGMETs :     Misc.  Thunderstorms  Icing  Turbulence  Mountain Waves  Volcanic Ashes







- Airport Elevation : 885 ft
- IATA code : BAS
- Download approach charts


LFSB - Bale-Mulhouse

CURRENT METAR :
  • 262300Z AUTO 33008KT 5000 -RA BR OVC005 04/04 Q1013 TEMPO BKN010

EXPIRED METARs :
  • 262230Z AUTO 33007KT 5000 -RA BR OVC005 04/04 Q1013 TEMPO BKN010
  • 262200Z 34009KT 5000 -RA BKN005 BKN013 04/04 Q1013 NOSIG
  • 262130Z 34008KT 5000 -RA SCT005 BKN013 BKN021 04/04 Q1012 NOSIG
  • 262100Z 35007KT 320V020 5000 -RA SCT005 BKN013 BKN018 05/04 Q1012 NOSIG
  • 262030Z 33005KT 270V030 5000 -RA SCT005 BKN018 05/04 Q1012 NOSIG

TAF TAF LFSB
Valid from the 26 at 18:00 until the 27 at 18:00 UTC


261700Z 2618/2718 34006KT 9999 SCT010 BKN020
PROB40
TEMPO 2618/2708 4500 -RA BKN010
PROB40
TEMPO 2708/2712 4000 SHRA FEW030TCU
Met : +33 3 89 90 31 11
No reported NOTAMs for that airfield.



MET'MAP, your aeronautical weather chart ! - Copyright ORBIFLY December 2007 - Disclaimer

ORBIFLY MET'MAP TEAM :

Programming & Development : Alexandra Zaïnal
Concept & Development : Baudouin d'Aumeries
Co-Development & Prog : Marc-Olivier Méhu
Technical & hardware support : Manuel Goepfert

Contact : metmap@orbifly.com




SOURCES & CREDITS :

   NOAA